Fort Littleton, Pennsylvania
Current Conditions -  °F | °C
As of 7:53 AM on Sunday 21 Dec 2014 (Local Time) from KAOO Reporting Station
Haze Haze  
Wind Chill: 25°   Ceiling: 6000
Heat Index: 25°   Visibility: 4mi
Dew Point: 23°   Wind: 0mph
Humidity: 92%   Direction: NA
Pressure: 30.28"   Gusts: NA
Location:  40.06°N, 77.96°W
Report Text: KAOO 211253Z AUTO 00000KT 4SM BR SCT024 OVC060 M04/M05 A3028 RMK AO2 SLP274 T10391050
Loading
Personal Weather Stations






























Interactive Weather Map New forecast layout! Learn more

10-Day Weather Forecast

Advertisements
Track Severe Weather on mobile